METAR KZZZ 191929Z 00000KT CLR 34/09 A2997 RMK SLP148 T03390089 10339 20339 54000 403390339